Time;durP1;ratioP1;P1;durP2;ratioP2;P2;SDS_P1;SDS_P2;PMS_P1;PMS_P2;Temp;Humidity;BMP_temperature;BMP_pressure;BME280_temperature;BME280_humidity;BME280_pressure;Samples;Min_cycle;Max_cycle;Signal;HPM_P1;HPM_P2
2022/01/18 00:00:23;;;;;;;43.40;19.53;;;5.20;99.90;;;;;;5029623;28;20440;-70
2022/01/18 00:02:49;;;;;;;41.40;19.93;;;5.20;99.90;;;;;;5029008;28;20933;-71
2022/01/18 00:05:15;;;;;;;44.87;18.87;;;5.20;99.90;;;;;;5027966;28;20452;-70
2022/01/18 00:07:42;;;;;;;46.10;20.03;;;5.20;99.90;;;;;;5026434;28;20169;-72
2022/01/18 00:10:08;;;;;;;42.23;19.80;;;5.20;99.90;;;;;;5029099;28;20554;-70
2022/01/18 00:18:09;;;;;;;40.47;19.17;;;5.20;99.90;;;;;;5028779;28;20420;-71
2022/01/18 00:20:51;;;;;;;39.20;19.40;;;5.20;99.90;;;;;;5028868;28;20439;-70
2022/01/18 00:23:18;;;;;;;40.67;18.80;;;5.20;99.90;;;;;;5035799;28;20427;-70
2022/01/18 00:25:48;;;;;;;36.87;19.23;;;5.20;99.90;;;;;;5040748;28;20984;-70
2022/01/18 00:28:14;;;;;;;36.63;18.60;;;5.20;99.90;;;;;;5029720;28;20580;-70
2022/01/18 00:35:58;;;;;;;39.93;19.37;;;5.40;99.90;;;;;;5028906;28;20426;-70
2022/01/18 00:38:31;;;;;;;41.17;20.27;;;5.40;99.90;;;;;;5028453;28;20252;-71
2022/01/18 00:40:57;;;;;;;37.33;19.63;;;5.40;99.90;;;;;;5028193;28;20463;-70
2022/01/18 00:43:23;;;;;;;44.17;20.20;;;5.40;99.90;;;;;;5028399;28;20420;-70
2022/01/18 00:45:48;;;;;;;38.50;18.73;;;5.50;99.90;;;;;;5028500;28;20460;-70
2022/01/18 00:48:14;;;;;;;39.53;19.93;;;5.50;99.90;;;;;;5028367;28;20556;-71
2022/01/18 00:50:40;;;;;;;39.40;19.23;;;5.50;99.90;;;;;;5026266;28;20260;-71
2022/01/18 00:53:10;;;;;;;35.30;18.20;;;5.50;99.90;;;;;;5026102;28;20174;-70
2022/01/18 00:55:47;;;;;;;34.73;18.57;;;5.40;99.90;;;;;;5029345;28;20173;-70
2022/01/18 00:58:13;;;;;;;41.17;19.27;;;5.40;99.90;;;;;;5027782;28;20458;-71
2022/01/18 01:00:38;;;;;;;40.47;19.27;;;5.40;99.90;;;;;;5028475;28;20535;-70
2022/01/18 01:03:04;;;;;;;44.27;20.93;;;5.30;99.90;;;;;;5026968;28;20752;-71
2022/01/18 01:05:30;;;;;;;41.70;20.00;;;5.40;99.90;;;;;;5029113;28;20662;-69
2022/01/18 01:07:55;;;;;;;39.17;19.20;;;5.40;99.90;;;;;;5026627;28;20719;-71
2022/01/18 01:10:21;;;;;;;37.80;18.90;;;5.30;99.90;;;;;;5028079;28;20233;-71
2022/01/18 01:12:46;;;;;;;44.43;20.37;;;5.30;99.90;;;;;;5024889;28;20188;-70
2022/01/18 01:15:14;;;;;;;35.60;18.10;;;5.30;99.90;;;;;;5026598;28;20173;-70
2022/01/18 01:41:46;;;;;;;37.03;18.40;;;5.30;99.90;;;;;;5026970;28;20507;-70
2022/01/18 01:42:30;;;;;;;35.93;18.33;;;5.80;99.90;;;;;;5017848;28;20426;-70
2022/01/18 01:44:56;;;;;;;43.70;19.23;;;5.40;99.90;;;;;;5042471;28;20755;-70
2022/01/18 01:47:33;;;;;;;38.53;18.77;;;5.60;99.90;;;;;;5028873;28;20420;-69
2022/01/18 01:49:59;;;;;;;38.80;18.27;;;5.40;99.90;;;;;;5028077;28;20479;-70
2022/01/18 01:52:25;;;;;;;35.83;18.87;;;5.30;99.90;;;;;;5024779;28;20424;-70
2022/01/18 01:54:53;;;;;;;36.50;18.90;;;5.20;99.90;;;;;;5027101;28;20646;-70
2022/01/18 01:57:19;;;;;;;34.97;17.83;;;5.20;99.90;;;;;;5025132;28;20181;-70
2022/01/18 01:59:45;;;;;;;43.43;20.83;;;5.30;99.90;;;;;;5026638;28;20448;-70
2022/01/18 02:02:10;;;;;;;42.33;20.07;;;5.30;99.90;;;;;;5027719;28;20181;-71
2022/01/18 02:04:36;;;;;;;43.37;19.93;;;5.30;99.90;;;;;;5030495;28;20228;-70
2022/01/18 02:07:02;;;;;;;41.97;19.83;;;5.30;99.90;;;;;;5028787;28;20218;-70
2022/01/18 02:09:28;;;;;;;42.97;19.50;;;5.30;99.90;;;;;;5030575;28;20209;-70
2022/01/18 02:11:56;;;;;;;45.67;19.77;;;5.30;99.90;;;;;;5028986;28;20427;-70
2022/01/18 02:14:23;;;;;;;43.83;20.13;;;5.30;99.90;;;;;;5031136;28;20207;-70
2022/01/18 02:22:17;;;;;;;46.00;19.03;;;5.30;99.90;;;;;;5019372;28;20925;-71
2022/01/18 02:24:43;;;;;;;40.33;19.00;;;5.30;99.90;;;;;;5042504;28;20458;-70
2022/01/18 02:27:09;;;;;;;48.63;20.23;;;5.40;99.90;;;;;;5028610;28;20247;-69
2022/01/18 02:29:35;;;;;;;50.43;19.77;;;5.30;99.90;;;;;;5029614;28;20965;-70
2022/01/18 02:32:00;;;;;;;43.43;19.57;;;5.40;99.90;;;;;;5028950;28;20310;-71
2022/01/18 02:34:26;;;;;;;38.37;19.00;;;5.70;99.90;;;;;;5028531;28;20288;-71
2022/01/18 02:36:54;;;;;;;44.17;19.10;;;5.30;99.90;;;;;;5030019;28;20253;-70
2022/01/18 02:39:22;;;;;;;37.07;19.57;;;5.40;99.90;;;;;;5030614;28;20197;-71
2022/01/18 02:42:04;;;;;;;46.23;19.70;;;5.40;99.90;;;;;;5030447;28;20452;-70
2022/01/18 02:44:31;;;;;;;40.30;19.70;;;5.40;99.90;;;;;;5029955;28;20455;-71
2022/01/18 02:46:57;;;;;;;40.73;19.30;;;5.40;99.90;;;;;;5030123;28;20502;-70
2022/01/18 02:49:22;;;;;;;42.03;19.57;;;5.30;99.90;;;;;;5030586;28;20459;-70
2022/01/18 02:51:48;;;;;;;40.20;18.73;;;5.40;99.90;;;;;;5027296;28;20452;-71
2022/01/18 02:54:17;;;;;;;41.77;18.90;;;5.30;99.90;;;;;;5030454;28;20641;-71
2022/01/18 02:56:58;;;;;;;44.17;19.87;;;5.30;99.90;;;;;;5038190;28;20178;-70
2022/01/18 02:59:34;;;;;;;42.70;19.20;;;5.20;99.90;;;;;;5010593;28;20454;-71
2022/01/18 03:04:47;;;;;;;43.73;19.67;;;5.20;99.90;;;;;;5030000;28;20675;-71
2022/01/18 03:07:13;;;;;;;40.90;19.90;;;5.20;99.90;;;;;;5028982;28;20431;-71
2022/01/18 03:09:39;;;;;;;39.60;19.40;;;5.20;99.90;;;;;;5030212;28;20915;-70
2022/01/18 03:12:06;;;;;;;43.57;19.63;;;5.20;99.90;;;;;;5031770;28;20419;-70
2022/01/18 03:14:32;;;;;;;42.67;19.90;;;5.20;99.90;;;;;;5029231;28;20189;-71
2022/01/18 03:16:57;;;;;;;45.93;19.67;;;;;;;;;;5029735;28;20798;-71
2022/01/18 03:19:23;;;;;;;51.60;20.93;;;5.30;99.90;;;;;;5030037;28;20517;-70
2022/01/18 03:21:50;;;;;;;46.60;20.97;;;5.30;99.90;;;;;;5028749;28;20316;-69
2022/01/18 03:29:35;;;;;;;41.67;19.37;;;5.10;99.90;;;;;;5022518;28;20900;-69
2022/01/18 03:32:01;;;;;;;47.90;20.03;;;5.10;99.90;;;;;;5029723;28;20495;-70
2022/01/18 03:34:26;;;;;;;43.40;19.50;;;5.10;99.90;;;;;;5029459;28;20257;-70
2022/01/18 03:36:53;;;;;;;44.07;21.13;;;5.10;99.90;;;;;;5028859;28;20512;-71
2022/01/18 03:39:19;;;;;;;50.00;22.40;;;5.10;99.90;;;;;;5015517;28;20255;-70
2022/01/18 03:41:51;;;;;;;42.50;20.07;;;5.60;99.90;;;;;;5028986;28;20432;-70
2022/01/18 03:44:18;;;;;;;46.03;20.67;;;5.10;99.90;;;;;;5027730;28;20970;-70
2022/01/18 03:46:44;;;;;;;45.13;20.13;;;5.40;99.90;;;;;;5029303;28;20506;-70
2022/01/18 03:49:09;;;;;;;43.43;19.73;;;5.10;99.90;;;;;;5029009;28;20911;-70
2022/01/18 03:51:34;;;;;;;48.00;20.13;;;5.10;99.90;;;;;;5026831;28;20181;-71
2022/01/18 03:54:00;;;;;;;41.50;19.77;;;5.10;99.90;;;;;;5036813;28;20662;-70
2022/01/18 03:56:26;;;;;;;41.23;19.00;;;5.00;99.90;;;;;;5028837;28;20247;-70
2022/01/18 03:58:52;;;;;;;49.57;20.30;;;5.10;99.90;;;;;;5029140;28;20178;-70
2022/01/18 04:01:17;;;;;;;43.80;19.80;;;5.10;99.90;;;;;;5029075;28;20495;-70
2022/01/18 04:03:43;;;;;;;44.00;20.23;;;5.10;99.90;;;;;;5027172;28;20289;-70
2022/01/18 04:06:08;;;;;;;37.00;19.53;;;5.10;99.90;;;;;;5026172;28;20177;-70
2022/01/18 04:08:34;;;;;;;47.47;20.03;;;5.10;99.90;;;;;;5027999;28;20190;-72
2022/01/18 04:10:59;;;;;;;47.73;21.43;;;5.20;99.90;;;;;;5018125;28;20793;-70
2022/01/18 04:13:25;;;;;;;43.03;19.30;;;5.20;99.90;;;;;;5019553;28;20197;-68
2022/01/18 04:15:50;;;;;;;38.50;18.37;;;5.30;99.90;;;;;;5028901;28;20224;-70
2022/01/18 04:18:30;;;;;;;43.60;19.73;;;5.30;99.90;;;;;;5028974;28;20178;-70
2022/01/18 04:29:00;;;;;;;42.10;19.47;;;5.30;99.90;;;;;;5027857;28;20420;-70
2022/01/18 04:31:27;;;;;;;37.90;19.40;;;5.20;99.90;;;;;;5028821;28;20481;-71
2022/01/18 04:33:53;;;;;;;42.60;19.77;;;5.20;99.90;;;;;;5026399;28;20965;-70
2022/01/18 04:36:19;;;;;;;49.93;19.90;;;5.50;99.90;;;;;;5027817;28;20428;-70
2022/01/18 04:38:45;;;;;;;43.20;20.27;;;5.30;99.90;;;;;;5027995;28;20791;-71
2022/01/18 04:41:15;;;;;;;36.37;19.17;;;5.30;99.90;;;;;;5028299;28;20507;-70
2022/01/18 04:44:07;;;;;;;47.20;21.13;;;5.30;99.90;;;;;;5027557;28;20813;-71
2022/01/18 04:49:17;;;;;;;39.23;20.03;;;5.20;99.90;;;;;;5028055;28;20555;-70
2022/01/18 04:51:46;;;;;;;43.20;20.33;;;5.20;99.90;;;;;;5027159;28;20511;-70
2022/01/18 04:54:12;;;;;;;42.77;20.00;;;5.20;99.90;;;;;;5025109;28;20213;-70
2022/01/18 04:59:08;;;;;;;46.40;19.90;;;5.30;99.90;;;;;;5027358;28;20930;-70
2022/01/18 05:01:35;;;;;;;41.30;20.33;;;5.20;99.90;;;;;;5026613;28;20416;-71
2022/01/18 05:04:01;;;;;;;39.23;18.70;;;5.20;99.90;;;;;;5027747;28;20463;-70
2022/01/18 05:06:27;;;;;;;39.43;18.80;;;5.20;99.90;;;;;;5027118;28;20427;-70
2022/01/18 05:08:54;;;;;;;42.40;21.70;;;5.10;99.90;;;;;;5027385;28;20440;-70
2022/01/18 05:11:22;;;;;;;42.93;19.90;;;5.10;99.90;;;;;;5028944;28;20231;-70
2022/01/18 05:17:02;;;;;;;64.10;25.10;;;5.40;99.90;;;;;;4985559;28;20954;-70
2022/01/18 05:24:32;;;;;;;55.93;26.63;;;5.10;99.90;;;;;;5027064;28;20459;-70
2022/01/18 05:26:59;;;;;;;41.77;21.00;;;5.50;99.90;;;;;;5027023;28;20764;-70
2022/01/18 05:29:25;;;;;;;65.30;29.23;;;5.10;99.90;;;;;;5023969;28;20444;-71
2022/01/18 05:31:51;;;;;;;65.83;29.30;;;5.30;99.90;;;;;;5027458;28;20423;-69
2022/01/18 05:34:17;;;;;;;52.23;23.63;;;5.00;99.90;;;;;;5026950;28;20503;-70
2022/01/18 05:36:43;;;;;;;51.57;23.60;;;5.40;99.90;;;;;;5027255;28;20253;-71
2022/01/18 05:39:09;;;;;;;47.80;21.63;;;5.10;99.90;;;;;;5026629;28;20673;-70
2022/01/18 05:41:36;;;;;;;48.90;21.27;;;5.10;99.90;;;;;;5027345;28;20176;-70
2022/01/18 05:44:02;;;;;;;50.40;21.90;;;5.00;99.90;;;;;;5026662;28;20525;-70
2022/01/18 05:46:28;;;;;;;49.77;20.20;;;5.00;99.90;;;;;;5027442;28;20474;-70
2022/01/18 05:48:53;;;;;;;44.50;20.07;;;5.10;99.90;;;;;;5025072;28;20424;-71
2022/01/18 05:51:19;;;;;;;48.00;20.80;;;5.30;99.90;;;;;;5026551;28;20174;-70
2022/01/18 05:53:45;;;;;;;44.23;22.60;;;5.10;99.90;;;;;;5031987;28;20770;-70
2022/01/18 05:56:11;;;;;;;51.80;22.47;;;5.20;99.90;;;;;;5030047;28;20174;-70
2022/01/18 05:58:43;;;;;;;62.53;24.67;;;5.20;99.90;;;;;;5027220;28;20170;-70
2022/01/18 06:01:08;;;;;;;53.27;22.60;;;5.20;99.90;;;;;;5026786;28;20440;-71
2022/01/18 06:03:40;;;;;;;57.93;22.40;;;5.10;99.90;;;;;;5011597;28;20420;-70
2022/01/18 06:08:50;;;;;;;45.40;22.70;;;;;;;;;;5021934;28;20427;-69
2022/01/18 06:11:15;;;;;;;51.53;22.77;;;5.20;99.90;;;;;;5026741;28;20417;-71
2022/01/18 06:13:41;;;;;;;52.93;22.37;;;5.30;99.90;;;;;;5026241;28;20189;-71
2022/01/18 06:16:06;;;;;;;55.77;23.60;;;5.20;99.90;;;;;;5026930;28;20193;-70
2022/01/18 06:18:32;;;;;;;47.57;22.10;;;5.10;99.90;;;;;;5027021;28;20186;-71
2022/01/18 06:20:58;;;;;;;43.23;20.87;;;5.30;99.90;;;;;;5026773;28;20190;-69
2022/01/18 06:23:24;;;;;;;44.97;21.27;;;5.30;99.90;;;;;;5034373;28;20178;-70
2022/01/18 06:25:49;;;;;;;51.43;22.10;;;5.30;99.90;;;;;;5041292;28;20197;-70
2022/01/18 06:28:15;;;;;;;51.00;22.60;;;5.60;99.90;;;;;;5045047;28;20424;-70
2022/01/18 06:30:40;;;;;;;53.00;21.97;;;5.30;99.90;;;;;;5031930;28;20201;-71
2022/01/18 06:33:06;;;;;;;53.67;22.70;;;5.30;99.90;;;;;;5026896;28;20177;-70
2022/01/18 06:35:32;;;;;;;50.17;22.10;;;5.20;99.90;;;;;;5026699;28;20182;-70
2022/01/18 06:37:58;;;;;;;45.47;22.67;;;5.20;99.90;;;;;;5026305;28;20174;-70
2022/01/18 06:40:25;;;;;;;43.23;21.87;;;5.20;99.90;;;;;;5026594;28;20815;-70
2022/01/18 06:42:50;;;;;;;50.20;20.90;;;5.10;99.90;;;;;;5026576;28;20189;-70
2022/01/18 06:45:16;;;;;;;48.27;23.00;;;5.10;99.90;;;;;;5026007;28;20941;-71
2022/01/18 06:47:42;;;;;;;47.83;22.40;;;5.10;99.90;;;;;;5025454;28;20671;-70
2022/01/18 06:50:11;;;;;;;44.90;21.40;;;7.10;99.90;;;;;;5026878;28;20232;-70
2022/01/18 06:52:37;;;;;;;46.07;20.17;;;5.00;99.90;;;;;;5028927;28;20178;-70
2022/01/18 06:55:03;;;;;;;44.80;20.80;;;5.00;99.90;;;;;;5032274;28;20779;-70
2022/01/18 06:57:29;;;;;;;46.07;21.47;;;4.90;99.90;;;;;;5031007;28;20420;-69
2022/01/18 06:59:55;;;;;;;47.90;21.27;;;4.90;99.90;;;;;;5031154;28;20475;-69
2022/01/18 07:02:21;;;;;;;50.13;21.27;;;4.90;99.90;;;;;;5029897;28;20185;-72
2022/01/18 07:04:46;;;;;;;45.23;21.67;;;5.40;99.90;;;;;;5029945;28;20769;-70
2022/01/18 07:07:12;;;;;;;44.10;21.30;;;4.90;99.90;;;;;;5029944;28;20251;-69
2022/01/18 07:09:37;;;;;;;43.43;19.97;;;5.10;99.90;;;;;;5034038;28;20234;-70
2022/01/18 07:12:09;;;;;;;48.00;21.23;;;5.10;99.90;;;;;;5030905;28;20224;-69
2022/01/18 07:14:35;;;;;;;46.40;21.80;;;5.00;99.90;;;;;;5031337;28;20182;-69
2022/01/18 07:17:00;;;;;;;53.73;21.30;;;5.10;99.90;;;;;;5030688;28;20466;-70
2022/01/18 07:19:26;;;;;;;36.80;18.50;;;5.30;99.90;;;;;;5035988;28;20502;-73
2022/01/18 07:21:52;;;;;;;41.27;21.30;;;5.60;99.90;;;;;;5035949;28;20182;-72
2022/01/18 07:24:25;;;;;;;39.20;19.07;;;5.60;99.90;;;;;;5033589;28;20205;-72
2022/01/18 07:26:50;;;;;;;41.50;21.20;;;5.60;99.90;;;;;;5032696;28;20178;-72
2022/01/18 07:29:16;;;;;;;43.73;20.57;;;5.50;99.90;;;;;;5040440;28;20455;-72
2022/01/18 07:31:42;;;;;;;45.80;20.57;;;5.50;99.90;;;;;;5036156;28;20181;-72
2022/01/18 07:34:07;;;;;;;50.03;22.27;;;5.40;99.90;;;;;;5043796;28;20182;-71
2022/01/18 07:36:33;;;;;;;47.27;21.87;;;5.30;99.90;;;;;;5045173;28;20174;-70
2022/01/18 07:38:58;;;;;;;51.13;20.80;;;5.40;99.90;;;;;;5029360;28;20178;-72
2022/01/18 07:41:24;;;;;;;50.70;22.20;;;5.40;99.90;;;;;;5044064;28;20186;-70
2022/01/18 07:43:50;;;;;;;52.83;23.70;;;5.40;99.90;;;;;;5025786;28;20181;-71
2022/01/18 07:46:15;;;;;;;62.40;30.50;;;5.40;99.90;;;;;;5027476;28;20182;-71
2022/01/18 07:48:41;;;;;;;58.07;28.90;;;5.40;99.90;;;;;;5035414;28;20260;-70
2022/01/18 07:51:06;;;;;;;45.90;23.13;;;5.40;99.90;;;;;;5029921;28;20197;-71
2022/01/18 07:53:32;;;;;;;54.57;23.90;;;5.90;99.90;;;;;;5033880;28;20276;-70
2022/01/18 07:55:58;;;;;;;52.43;24.43;;;5.50;99.90;;;;;;5035854;28;20208;-70
2022/01/18 07:58:23;;;;;;;49.20;22.50;;;5.40;99.90;;;;;;5038078;28;20196;-71
2022/01/18 08:00:49;;;;;;;47.47;23.50;;;5.40;99.90;;;;;;5028309;28;20580;-71
2022/01/18 08:03:14;;;;;;;51.37;23.00;;;5.30;99.90;;;;;;5028140;28;20178;-70
2022/01/18 08:05:40;;;;;;;43.67;23.17;;;5.40;99.90;;;;;;5024858;28;20197;-70
2022/01/18 08:08:06;;;;;;;56.87;24.30;;;5.40;99.90;;;;;;5027800;28;20660;-69
2022/01/18 08:10:32;;;;;;;55.00;26.80;;;5.50;99.90;;;;;;5029390;28;20595;-69
2022/01/18 08:13:03;;;;;;;59.93;27.23;;;5.60;99.90;;;;;;5030003;28;20497;-69
2022/01/18 08:15:38;;;;;;;64.50;27.53;;;5.70;99.90;;;;;;5037976;28;20607;-69
2022/01/18 08:18:07;;;;;;;61.83;30.20;;;5.80;99.90;;;;;;5029765;28;20528;-70
2022/01/18 08:20:32;;;;;;;41.60;20.00;;;5.90;99.90;;;;;;5021082;28;20436;-71
2022/01/18 08:22:58;;;;;;;41.37;20.30;;;5.90;99.90;;;;;;5028500;28;20417;-70
2022/01/18 08:25:23;;;;;;;41.53;21.27;;;5.90;99.90;;;;;;5038242;28;20224;-72
2022/01/18 08:27:50;;;;;;;49.37;22.30;;;6.30;99.90;;;;;;5042194;28;20202;-72
2022/01/18 08:30:17;;;;;;;47.67;22.33;;;5.90;99.90;;;;;;5027520;28;20194;-72
2022/01/18 08:32:43;;;;;;;49.93;22.23;;;5.90;99.90;;;;;;5029208;28;20428;-72
2022/01/18 08:35:09;;;;;;;47.40;22.70;;;6.00;99.90;;;;;;5031116;28;20936;-72
2022/01/18 08:37:35;;;;;;;49.10;21.60;;;5.90;99.90;;;;;;5031784;28;20475;-73
2022/01/18 08:40:01;;;;;;;39.20;20.97;;;5.90;99.90;;;;;;5027590;28;20254;-71
2022/01/18 08:42:27;;;;;;;44.50;21.70;;;5.90;99.90;;;;;;5028072;28;20484;-72
2022/01/18 08:44:53;;;;;;;42.90;21.43;;;5.90;99.90;;;;;;5028571;28;20927;-72
2022/01/18 08:47:19;;;;;;;48.93;20.80;;;5.90;99.90;;;;;;5027879;28;20186;-72
2022/01/18 08:49:45;;;;;;;44.57;21.10;;;6.00;99.90;;;;;;5028240;28;20432;-70
2022/01/18 08:52:11;;;;;;;41.30;21.13;;;6.10;99.90;;;;;;5027879;28;20182;-71
2022/01/18 08:54:36;;;;;;;44.23;19.67;;;6.20;99.90;;;;;;5033271;28;20927;-71
2022/01/18 08:57:02;;;;;;;37.23;18.70;;;6.20;99.90;;;;;;5031672;28;20620;-72
2022/01/18 08:59:29;;;;;;;38.03;19.93;;;6.20;99.90;;;;;;5027742;28;20225;-72
2022/01/18 09:01:54;;;;;;;44.83;20.37;;;6.40;99.90;;;;;;5027595;28;20458;-72
2022/01/18 09:04:20;;;;;;;41.57;20.47;;;6.40;99.90;;;;;;5028167;28;21032;-72
2022/01/18 09:06:48;;;;;;;45.00;20.07;;;6.50;99.90;;;;;;5034627;28;20193;-72
2022/01/18 09:09:16;;;;;;;38.77;20.30;;;6.50;99.90;;;;;;5027173;28;20201;-72
2022/01/18 09:11:42;;;;;;;44.13;20.33;;;6.50;99.90;;;;;;5028179;28;20429;-71
2022/01/18 09:14:08;;;;;;;40.00;19.07;;;6.60;99.90;;;;;;5029274;28;20500;-71
2022/01/18 09:16:33;;;;;;;38.70;19.43;;;6.80;99.90;;;;;;5036029;28;20205;-73
2022/01/18 09:18:59;;;;;;;36.97;18.37;;;6.90;99.90;;;;;;5035744;28;20178;-72
2022/01/18 09:21:26;;;;;;;38.43;19.10;;;6.90;99.90;;;;;;5024894;28;20174;-72
2022/01/18 09:23:52;;;;;;;38.70;19.57;;;6.80;99.90;;;;;;5033637;28;20521;-71
2022/01/18 09:26:17;;;;;;;42.00;21.00;;;6.90;99.90;;;;;;5032821;28;20429;-72
2022/01/18 09:28:43;;;;;;;39.53;20.17;;;7.10;99.90;;;;;;5027155;28;20193;-71
2022/01/18 09:31:10;;;;;;;39.17;20.47;;;7.30;99.90;;;;;;5036501;28;20284;-71
2022/01/18 09:33:35;;;;;;;36.20;18.87;;;7.30;99.90;;;;;;5047397;28;20299;-72
2022/01/18 09:36:01;;;;;;;38.90;19.20;;;7.30;99.90;;;;;;5037454;28;20522;-71
2022/01/18 09:38:27;;;;;;;35.37;18.67;;;7.30;99.90;;;;;;5026760;28;20292;-72
2022/01/18 09:40:52;;;;;;;45.10;20.27;;;7.30;99.90;;;;;;5028102;28;20750;-72
2022/01/18 09:43:18;;;;;;;44.97;21.83;;;7.40;99.90;;;;;;5025412;28;20186;-71
2022/01/18 09:45:46;;;;;;;39.63;20.20;;;7.50;99.90;;;;;;5027590;28;20528;-72
2022/01/18 09:48:14;;;;;;;38.30;19.30;;;7.90;99.90;;;;;;5025464;28;20185;-72
2022/01/18 09:50:42;;;;;;;41.87;20.60;;;8.00;99.90;;;;;;5026504;28;20451;-71
2022/01/18 09:53:10;;;;;;;40.40;20.00;;;8.10;99.90;;;;;;5025564;28;20422;-72
2022/01/18 09:55:37;;;;;;;39.90;20.00;;;8.20;99.90;;;;;;5029766;28;20432;-72
2022/01/18 09:58:06;;;;;;;42.53;20.20;;;8.20;99.90;;;;;;5026118;28;20531;-72
2022/01/18 10:00:33;;;;;;;37.73;18.40;;;8.20;99.90;;;;;;5027493;28;20587;-72
2022/01/18 10:02:59;;;;;;;40.70;18.63;;;8.10;99.90;;;;;;5026848;28;20462;-72
2022/01/18 10:05:32;;;;;;;37.37;19.20;;;8.00;99.90;;;;;;5027579;28;20828;-74
2022/01/18 10:08:01;;;;;;;39.93;19.67;;;8.00;99.90;;;;;;5026137;28;20819;-71
2022/01/18 10:10:42;;;;;;;43.90;21.07;;;8.20;99.90;;;;;;5027183;28;20522;-72
2022/01/18 10:13:32;;;;;;;38.30;19.80;;;8.20;99.90;;;;;;5019793;28;20432;-71
2022/01/18 10:16:13;;;;;;;43.90;19.70;;;8.40;99.90;;;;;;5025567;28;20432;-72
2022/01/18 10:18:48;;;;;;;39.77;19.50;;;8.50;99.90;;;;;;5028439;28;20400;-71
2022/01/18 10:21:25;;;;;;;41.20;19.50;;;8.60;99.90;;;;;;5023968;28;20465;-73
2022/01/18 10:23:54;;;;;;;31.80;16.97;;;9.00;99.90;;;;;;5018687;28;20480;-72
2022/01/18 10:26:23;;;;;;;36.00;17.17;;;9.30;99.90;;;;;;5022444;28;20431;-72
2022/01/18 10:28:59;;;;;;;28.90;16.03;;;9.60;99.90;;;;;;5028603;28;21001;-73
2022/01/18 10:31:28;;;;;;;30.10;16.20;;;9.70;99.90;;;;;;5029464;28;20510;-72
2022/01/18 10:37:05;;;;;;;28.60;16.30;;;10.30;99.90;;;;;;5028274;28;20460;-71
2022/01/18 10:39:34;;;;;;;32.50;16.03;;;10.80;99.90;;;;;;5020705;28;20532;-72
2022/01/18 10:42:09;;;;;;;31.87;17.27;;;10.80;99.90;;;;;;5023339;28;20863;-72
2022/01/18 10:44:34;;;;;;;33.27;17.20;;;8.50;99.90;;;;;;5028719;28;20460;-72
2022/01/18 10:47:00;;;;;;;33.33;17.90;;;10.40;99.90;;;;;;5030414;28;20808;-73
2022/01/18 10:49:25;;;;;;;34.97;18.47;;;11.00;99.90;;;;;;5029809;28;20208;-72
2022/01/18 10:52:02;;;;;;;31.23;17.67;;;11.00;99.90;;;;;;5030342;28;20181;-72
2022/01/18 10:54:43;;;;;;;31.53;17.87;;;11.60;99.90;;;;;;5038587;28;20217;-73
2022/01/18 10:57:11;;;;;;;25.50;15.53;;;11.40;99.90;;;;;;5030140;28;20783;-72
2022/01/18 10:59:38;;;;;;;28.00;15.97;;;11.60;99.90;;;;;;5029569;28;20514;-72
2022/01/18 11:02:20;;;;;;;28.07;16.07;;;11.50;99.90;;;;;;5029494;28;20483;-72
2022/01/18 11:04:47;;;;;;;31.73;17.33;;;11.30;99.90;;;;;;5029784;28;20551;-72
2022/01/18 11:07:15;;;;;;;25.67;15.50;;;11.40;99.90;;;;;;5030286;28;20447;-72
2022/01/18 11:09:41;;;;;;;25.30;15.93;;;11.80;99.90;;;;;;5026861;28;20985;-72
2022/01/18 11:12:08;;;;;;;28.30;15.27;;;11.90;99.90;;;;;;5030299;28;20428;-72
2022/01/18 11:14:37;;;;;;;27.23;15.30;;;12.00;99.90;;;;;;5029771;28;20258;-72
2022/01/18 11:17:03;;;;;;;27.23;15.53;;;12.20;99.90;;;;;;5029442;28;20431;-72
2022/01/18 11:19:32;;;;;;;27.00;16.40;;;12.50;99.90;;;;;;5031697;28;20558;-72
2022/01/18 11:22:10;;;;;;;27.77;16.20;;;12.60;99.90;;;;;;5029984;28;20556;-72
2022/01/18 11:24:41;;;;;;;26.03;15.73;;;13.00;99.90;;;;;;5026393;28;20811;-73
2022/01/18 11:27:12;;;;;;;30.87;16.57;;;13.40;99.90;;;;;;5032601;28;20516;-72
2022/01/18 11:29:39;;;;;;;26.40;15.37;;;13.90;99.90;;;;;;5029496;28;20435;-72
2022/01/18 11:32:06;;;;;;;25.77;15.10;;;14.30;99.90;;;;;;5029873;28;20424;-72
2022/01/18 11:34:59;;;;;;;23.47;14.80;;;14.30;99.90;;;;;;5029476;28;20436;-72
2022/01/18 11:37:51;;;;;;;23.60;15.10;;;14.40;99.90;;;;;;5028637;28;20507;-72
2022/01/18 11:40:18;;;;;;;22.17;14.37;;;14.40;99.90;;;;;;5021002;28;20539;-72
2022/01/18 11:42:51;;;;;;;22.63;14.10;;;14.70;99.90;;;;;;5029062;28;20486;-72
2022/01/18 11:45:31;;;;;;;24.93;13.90;;;14.40;99.90;;;;;;5029310;28;20868;-73
2022/01/18 11:48:11;;;;;;;20.73;13.90;;;14.30;99.90;;;;;;5026479;28;20507;-72
2022/01/18 11:50:42;;;;;;;23.93;14.50;;;13.50;99.90;;;;;;5029449;28;20429;-73
2022/01/18 11:53:38;;;;;;;22.53;13.83;;;13.40;99.90;;;;;;5024998;28;20430;-72
2022/01/18 11:56:04;;;;;;;22.43;13.80;;;13.10;99.90;;;;;;5030174;28;20435;-71
2022/01/18 11:58:31;;;;;;;26.30;13.67;;;12.70;99.90;;;;;;5028081;28;20428;-71
2022/01/18 12:00:59;;;;;;;25.30;14.47;;;12.40;99.90;;;;;;5028894;28;20533;-72
2022/01/18 12:03:30;;;;;;;23.07;13.57;;;11.90;99.90;;;;;;5025419;28;20425;-75
2022/01/18 12:06:01;;;;;;;18.97;12.63;;;11.90;99.90;;;;;;5028984;28;20468;-72
2022/01/18 12:08:41;;;;;;;26.97;13.87;;;11.70;99.90;;;;;;5025757;28;20471;-71
2022/01/18 12:11:10;;;;;;;21.77;13.27;;;11.50;99.90;;;;;;5026051;28;20547;-72
2022/01/18 12:13:38;;;;;;;18.30;11.93;;;11.40;99.90;;;;;;5026613;28;20795;-73
2022/01/18 12:16:18;;;;;;;19.10;11.90;;;11.00;99.90;;;;;;5028978;28;20832;-71
2022/01/18 12:18:59;;;;;;;18.80;10.60;;;10.80;99.90;;;;;;5028609;28;20420;-72
2022/01/18 12:21:28;;;;;;;16.20;9.97;;;10.80;99.90;;;;;;5028920;28;20428;-71
2022/01/18 12:23:56;;;;;;;17.63;11.27;;;10.70;99.90;;;;;;5034812;28;20435;-73
2022/01/18 12:29:21;;;;;;;21.97;9.50;;;10.20;99.90;;;;;;5031921;28;20412;-72
2022/01/18 12:34:35;;;;;;;13.57;7.57;;;10.00;99.90;;;;;;5027661;28;20404;-73
2022/01/18 12:37:14;;;;;;;14.47;7.83;;;9.80;99.90;;;;;;5025124;28;20186;-72
2022/01/18 12:39:55;;;;;;;34.37;14.87;;;9.80;99.90;;;;;;5025468;28;20547;-71
2022/01/18 12:45:07;;;;;;;16.13;1.77;;;9.80;99.90;;;;;;5028066;28;20514;-72
2022/01/18 12:47:37;;;;;;;2.83;1.50;;;9.80;99.90;;;;;;5027374;28;20454;-72
2022/01/18 12:50:06;;;;;;;2.40;1.40;;;9.60;99.90;;;;;;5027416;28;20432;-73
2022/01/18 12:52:56;;;;;;;2.10;1.40;;;9.60;99.90;;;;;;5026698;28;20926;-72
2022/01/18 12:55:26;;;;;;;4.20;1.60;;;9.60;99.90;;;;;;5027117;28;20937;-73
2022/01/18 12:58:00;;;;;;;2.50;1.33;;;9.60;99.90;;;;;;5027453;28;20860;-71
2022/01/18 13:00:26;;;;;;;3.30;2.03;;;9.70;99.90;;;;;;5025906;28;20492;-72
2022/01/18 13:02:56;;;;;;;2.80;1.60;;;9.70;99.90;;;;;;5028289;28;20905;-72
2022/01/18 13:05:31;;;;;;;1.50;1.40;;;9.70;99.90;;;;;;5027201;28;20228;-72
2022/01/18 13:07:57;;;;;;;3.10;2.33;;;9.70;99.90;;;;;;5028491;28;20408;-72
2022/01/18 13:10:34;;;;;;;2.90;1.63;;;9.70;99.90;;;;;;5027150;28;20452;-72
2022/01/18 13:13:00;;;;;;;5.10;1.77;;;9.60;99.90;;;;;;5019237;28;20189;-73
2022/01/18 13:22:56;;;;;;;4.30;2.50;;;9.60;99.90;;;;;;5026485;28;20666;-72
2022/01/18 13:27:02;;;;;;;1.90;1.60;;;9.60;99.90;;;;;;5028790;28;20496;-73
2022/01/18 13:29:29;;;;;;;1.67;1.57;;;9.50;99.90;;;;;;5021408;28;20648;-73
2022/01/18 13:32:46;;;;;;;1.80;1.53;;;9.50;99.90;;;;;;5028550;28;20892;-73
2022/01/18 13:35:05;;;;;;;2.43;1.63;;;9.40;99.90;;;;;;5025195;28;21004;-73
2022/01/18 13:37:34;;;;;;;3.07;2.00;;;9.50;99.90;;;;;;5027979;28;20424;-73
2022/01/18 13:40:08;;;;;;;8.33;4.97;;;9.50;99.90;;;;;;5027123;28;20448;-74
2022/01/18 13:42:40;;;;;;;5.27;2.80;;;9.50;99.90;;;;;;5028212;28;20460;-73
2022/01/18 13:45:13;;;;;;;5.80;3.37;;;9.50;99.90;;;;;;5026225;28;20452;-74
2022/01/18 13:48:00;;;;;;;7.80;3.47;;;9.50;99.90;;;;;;5027087;28;20436;-73
2022/01/18 13:50:34;;;;;;;5.37;2.70;;;9.50;99.90;;;;;;5027822;28;20536;-73
2022/01/18 13:53:04;;;;;;;3.50;2.27;;;9.40;99.90;;;;;;5027697;28;20429;-73
2022/01/18 13:55:30;;;;;;;8.30;4.30;;;9.30;99.90;;;;;;5031303;28;20425;-73
2022/01/18 13:58:00;;;;;;;7.10;4.10;;;9.20;99.90;;;;;;5027264;28;20439;-73
2022/01/18 14:00:27;;;;;;;5.40;2.90;;;9.20;99.90;;;;;;5031178;28;20451;-72
2022/01/18 14:02:53;;;;;;;6.40;2.83;;;9.10;99.90;;;;;;5032336;28;20514;-72
2022/01/18 14:05:23;;;;;;;5.73;3.23;;;9.00;99.90;;;;;;5030024;28;20996;-72
2022/01/18 14:07:49;;;;;;;4.30;2.83;;;9.00;99.90;;;;;;5031791;28;20404;-72
2022/01/18 14:10:15;;;;;;;3.40;1.87;;;9.00;99.90;;;;;;5030417;28;20483;-72
2022/01/18 14:12:40;;;;;;;3.63;2.10;;;9.00;99.90;;;;;;5030441;28;20868;-73
2022/01/18 14:15:07;;;;;;;3.10;2.40;;;8.90;99.90;;;;;;5028967;28;20327;-72